KSPG/SPG METAR and TAF weather

Enter ICAO airport designator
Station Type Date Time Source
KSPG METAR 2019/08/17 11:09 UTC NOAA

KSPG 171109Z 30003KT 10SM -RA FEW014 SCT033 BKN075 24/22 A3003 RMK AO2 P0002 T02440217 $


Station Type Date Time Source
KSPG Decoded METAR 2019/08/17 11:09 UTC NOAA

Station name not available
Aug 17, 2019 - 07:09 AM EDT / 2019.08.17 1109 UTC
Wind: from the WNW (300 degrees) at 3 MPH (3 KT):0
Visibility: 10 mile(s):0
Sky conditions: mostly cloudy
Weather: light rain
Precipitation last hour: 0.02 inches
Temperature: 75.9 F (24.4 C)
Dew Point: 71.1 F (21.7 C)
Relative Humidity: 84%
Pressure (altimeter): 30.03 in. Hg (1016 hPa)
ob: KSPG 171109Z 30003KT 10SM -RA FEW014 SCT033 BKN075 24/22 A3003 RMK AO2 P0002 T02440217
cycle: 11

Station Type Date Time Source
KSPG TAF UTC NOAA

Error!

Example: see airport list